UAL587 KDEN-KASE
Flight info
| Callsign | UAL587 |
|---|---|
| Flight time | 0h 31m |
| Altitude | 25000 |
| Route | CONNR7 WERNR DBL |
| Aircraft | CRJ7/M-SDFGIRWY/S |
Departure
| Time | 2026-04-23 14:21 |
|---|---|
| Airport | Denver International Airport (KDEN) |
Arrival
| Time | 2026-04-23 14:52 |
|---|---|
| Airport | Aspen-Pitkin County Airport (Sardy Field) (KASE) |
| Time | Latitude | Longitude | Altitude | Speed | Heading |
|---|---|---|---|---|---|
| 2026-04-23 13:54 | 39.85808 | -104.67080 | 5379 ft | 0 kts | 1° |
| 2026-04-23 14:10 | 39.85797 | -104.67080 | 5375 ft | 3 kts | 1° |
| 2026-04-23 14:10 | 39.85778 | -104.67081 | 5377 ft | 3 kts | 7° |
| 2026-04-23 14:11 | 39.85764 | -104.67095 | 5375 ft | 3 kts | 76° |
| 2026-04-23 14:11 | 39.85764 | -104.67104 | 5377 ft | 0 kts | 93° |
| 2026-04-23 14:17 | 39.85758 | -104.67081 | 5376 ft | 6 kts | 112° |
| 2026-04-23 14:18 | 39.85733 | -104.67003 | 5376 ft | 12 kts | 96° |
| 2026-04-23 14:18 | 39.85712 | -104.66828 | 5378 ft | 22 kts | 105° |
| 2026-04-23 14:18 | 39.85700 | -104.66630 | 5382 ft | 22 kts | 89° |
| 2026-04-23 14:18 | 39.85687 | -104.66430 | 5387 ft | 22 kts | 94° |
| 2026-04-23 14:19 | 39.85681 | -104.66318 | 5390 ft | 16 kts | 92° |
| 2026-04-23 14:19 | 39.85700 | -104.66250 | 5390 ft | 13 kts | 31° |
| 2026-04-23 14:19 | 39.85867 | -104.66234 | 5394 ft | 25 kts | 0° |
| 2026-04-23 14:19 | 39.86011 | -104.66192 | 5393 ft | 19 kts | 65° |
| 2026-04-23 14:20 | 39.86009 | -104.66056 | 5397 ft | 11 kts | 110° |
| 2026-04-23 14:20 | 39.85938 | -104.66015 | 5397 ft | 21 kts | 181° |
| 2026-04-23 14:20 | 39.85532 | -104.66021 | 5390 ft | 97 kts | 180° |
| 2026-04-23 14:20 | 39.84621 | -104.66036 | 5388 ft | 159 kts | 180° |
| 2026-04-23 14:21 | 39.83416 | -104.66084 | 5799 ft | 184 kts | 182° |
| 2026-04-23 14:21 | 39.82084 | -104.66171 | 6437 ft | 203 kts | 185° |
| 2026-04-23 14:21 | 39.80667 | -104.66539 | 6916 ft | 221 kts | 209° |
| 2026-04-23 14:21 | 39.79617 | -104.68075 | 7435 ft | 237 kts | 249° |
| 2026-04-23 14:22 | 39.79588 | -104.70081 | 8143 ft | 228 kts | 290° |
| 2026-04-23 14:22 | 39.80575 | -104.71762 | 8975 ft | 244 kts | 315° |
| 2026-04-23 14:22 | 39.81828 | -104.73377 | 9634 ft | 260 kts | 310° |
| 2026-04-23 14:22 | 39.82983 | -104.75280 | 10140 ft | 278 kts | 298° |
| 2026-04-23 14:23 | 39.83564 | -104.77523 | 10519 ft | 253 kts | 282° |
| 2026-04-23 14:23 | 39.83925 | -104.79763 | 11280 ft | 260 kts | 278° |
| 2026-04-23 14:23 | 39.84134 | -104.82119 | 12075 ft | 264 kts | 273° |
| 2026-04-23 14:23 | 39.84216 | -104.84472 | 13065 ft | 258 kts | 271° |
| 2026-04-23 14:24 | 39.84256 | -104.86626 | 13991 ft | 224 kts | 270° |
| 2026-04-23 14:24 | 39.84286 | -104.88588 | 14846 ft | 210 kts | 269° |
| 2026-04-23 14:24 | 39.84324 | -104.90414 | 15723 ft | 193 kts | 264° |
| 2026-04-23 14:24 | 39.84126 | -104.92057 | 16474 ft | 185 kts | 254° |
| 2026-04-23 14:25 | 39.83778 | -104.93682 | 17092 ft | 187 kts | 251° |
| 2026-04-23 14:25 | 39.83404 | -104.95282 | 17710 ft | 187 kts | 251° |
| 2026-04-23 14:25 | 39.83035 | -104.96904 | 18319 ft | 187 kts | 251° |
| 2026-04-23 14:25 | 39.82694 | -104.98521 | 18881 ft | 185 kts | 251° |
| 2026-04-23 14:26 | 39.82366 | -105.00133 | 19519 ft | 182 kts | 251° |
| 2026-04-23 14:26 | 39.82053 | -105.01712 | 20090 ft | 179 kts | 251° |
| 2026-04-23 14:26 | 39.81748 | -105.03277 | 20599 ft | 177 kts | 251° |
| 2026-04-23 14:26 | 39.81455 | -105.04832 | 21090 ft | 178 kts | 251° |
| 2026-04-23 14:27 | 39.81160 | -105.06402 | 21606 ft | 179 kts | 250° |
| 2026-04-23 14:27 | 39.80854 | -105.07974 | 22151 ft | 179 kts | 250° |
| 2026-04-23 14:27 | 39.80549 | -105.09535 | 22707 ft | 177 kts | 249° |
| 2026-04-23 14:27 | 39.80256 | -105.11044 | 23257 ft | 173 kts | 249° |
| 2026-04-23 14:28 | 39.79961 | -105.12546 | 23711 ft | 170 kts | 248° |
| 2026-04-23 14:28 | 39.79653 | -105.14068 | 23932 ft | 178 kts | 249° |
| 2026-04-23 14:28 | 39.79329 | -105.15664 | 24172 ft | 185 kts | 249° |
| 2026-04-23 14:28 | 39.78987 | -105.17335 | 24281 ft | 200 kts | 249° |
| 2026-04-23 14:29 | 39.78607 | -105.19163 | 24337 ft | 218 kts | 249° |
| 2026-04-23 14:29 | 39.78186 | -105.21140 | 24372 ft | 237 kts | 249° |
| 2026-04-23 14:29 | 39.77722 | -105.23272 | 24394 ft | 257 kts | 250° |
| 2026-04-23 14:29 | 39.77229 | -105.25602 | 24388 ft | 278 kts | 250° |
| 2026-04-23 14:30 | 39.76713 | -105.28125 | 24376 ft | 298 kts | 251° |
| 2026-04-23 14:30 | 39.76158 | -105.30816 | 24363 ft | 318 kts | 251° |
| 2026-04-23 14:30 | 39.75570 | -105.33678 | 24351 ft | 337 kts | 251° |
| 2026-04-23 14:30 | 39.74951 | -105.36698 | 24336 ft | 354 kts | 251° |
| 2026-04-23 14:31 | 39.74307 | -105.39846 | 24446 ft | 367 kts | 252° |
| 2026-04-23 14:31 | 39.73639 | -105.43087 | 24652 ft | 376 kts | 252° |
| 2026-04-23 14:31 | 39.72969 | -105.46376 | 24832 ft | 385 kts | 252° |
| 2026-04-23 14:31 | 39.72263 | -105.49821 | 25025 ft | 393 kts | 252° |
| 2026-04-23 14:32 | 39.71556 | -105.53227 | 25254 ft | 400 kts | 252° |
| 2026-04-23 14:32 | 39.70831 | -105.56762 | 25455 ft | 407 kts | 252° |
| 2026-04-23 14:32 | 39.70099 | -105.60333 | 25646 ft | 413 kts | 252° |
| 2026-04-23 14:32 | 39.69363 | -105.63953 | 25854 ft | 418 kts | 252° |
| 2026-04-23 14:33 | 39.68632 | -105.67617 | 26234 ft | 417 kts | 255° |
| 2026-04-23 14:33 | 39.68113 | -105.71275 | 26530 ft | 400 kts | 259° |
| 2026-04-23 14:33 | 39.67732 | -105.74707 | 26625 ft | 379 kts | 259° |
| 2026-04-23 14:33 | 39.67351 | -105.78022 | 26660 ft | 363 kts | 258° |
| 2026-04-23 14:34 | 39.66938 | -105.81185 | 26731 ft | 349 kts | 257° |
| 2026-04-23 14:34 | 39.66513 | -105.84231 | 26712 ft | 337 kts | 257° |
| 2026-04-23 14:34 | 39.66113 | -105.87176 | 26718 ft | 327 kts | 258° |
| 2026-04-23 14:34 | 39.65723 | -105.90038 | 26728 ft | 317 kts | 257° |
| 2026-04-23 14:35 | 39.65343 | -105.92820 | 26774 ft | 309 kts | 257° |
| 2026-04-23 14:35 | 39.64973 | -105.95538 | 26781 ft | 301 kts | 257° |
| 2026-04-23 14:35 | 39.64612 | -105.98147 | 26796 ft | 295 kts | 257° |
| 2026-04-23 14:35 | 39.64241 | -106.00734 | 26824 ft | 288 kts | 257° |
| 2026-04-23 14:36 | 39.63839 | -106.03240 | 26597 ft | 283 kts | 258° |
| 2026-04-23 14:36 | 39.63465 | -106.05747 | 26211 ft | 280 kts | 259° |
| 2026-04-23 14:36 | 39.63126 | -106.08223 | 25844 ft | 277 kts | 259° |
| 2026-04-23 14:36 | 39.62787 | -106.10671 | 25456 ft | 275 kts | 259° |
| 2026-04-23 14:37 | 39.62446 | -106.13106 | 25074 ft | 272 kts | 259° |
| 2026-04-23 14:37 | 39.62111 | -106.15509 | 24714 ft | 270 kts | 259° |
| 2026-04-23 14:37 | 39.61783 | -106.17899 | 24340 ft | 268 kts | 259° |
| 2026-04-23 14:37 | 39.61466 | -106.20243 | 23962 ft | 267 kts | 259° |
| 2026-04-23 14:38 | 39.61143 | -106.22599 | 23612 ft | 265 kts | 259° |
| 2026-04-23 14:38 | 39.60815 | -106.24949 | 23284 ft | 264 kts | 259° |
| 2026-04-23 14:38 | 39.60486 | -106.27297 | 22902 ft | 263 kts | 259° |
| 2026-04-23 14:38 | 39.60130 | -106.29780 | 22419 ft | 262 kts | 259° |
| 2026-04-23 14:39 | 39.59801 | -106.32066 | 22038 ft | 262 kts | 259° |
| 2026-04-23 14:39 | 39.59478 | -106.34384 | 21669 ft | 262 kts | 259° |
| 2026-04-23 14:39 | 39.59150 | -106.36695 | 21344 ft | 260 kts | 259° |
| 2026-04-23 14:39 | 39.58817 | -106.39017 | 20987 ft | 260 kts | 260° |
| 2026-04-23 14:40 | 39.58490 | -106.41308 | 20692 ft | 260 kts | 260° |
| 2026-04-23 14:40 | 39.58160 | -106.43606 | 20366 ft | 259 kts | 260° |
| 2026-04-23 14:40 | 39.57838 | -106.45876 | 20021 ft | 258 kts | 260° |
| 2026-04-23 14:40 | 39.57515 | -106.48157 | 19683 ft | 258 kts | 260° |
| 2026-04-23 14:41 | 39.57191 | -106.50439 | 19344 ft | 257 kts | 261° |
| 2026-04-23 14:41 | 39.56868 | -106.52722 | 19049 ft | 258 kts | 260° |
| 2026-04-23 14:41 | 39.56533 | -106.55001 | 18729 ft | 258 kts | 260° |
| 2026-04-23 14:41 | 39.56202 | -106.57284 | 18485 ft | 258 kts | 261° |
| 2026-04-23 14:42 | 39.55913 | -106.59575 | 18108 ft | 257 kts | 265° |
| 2026-04-23 14:42 | 39.55806 | -106.61885 | 17756 ft | 257 kts | 268° |
| 2026-04-23 14:42 | 39.55755 | -106.64187 | 17440 ft | 255 kts | 269° |
| 2026-04-23 14:42 | 39.55827 | -106.66454 | 17137 ft | 250 kts | 277° |
| 2026-04-23 14:43 | 39.56159 | -106.68644 | 16758 ft | 246 kts | 281° |
| 2026-04-23 14:43 | 39.56543 | -106.70792 | 16254 ft | 245 kts | 282° |
| 2026-04-23 14:43 | 39.56965 | -106.72948 | 15816 ft | 248 kts | 282° |
| 2026-04-23 14:43 | 39.57383 | -106.75095 | 15379 ft | 250 kts | 278° |
| 2026-04-23 14:44 | 39.57361 | -106.77331 | 14948 ft | 250 kts | 264° |
| 2026-04-23 14:44 | 39.57165 | -106.79571 | 14484 ft | 251 kts | 263° |
| 2026-04-23 14:44 | 39.56947 | -106.81779 | 14377 ft | 240 kts | 262° |
| 2026-04-23 14:44 | 39.56726 | -106.83931 | 14438 ft | 242 kts | 262° |
| 2026-04-23 14:45 | 39.56501 | -106.86015 | 14480 ft | 227 kts | 262° |
| 2026-04-23 14:45 | 39.56285 | -106.87978 | 14694 ft | 213 kts | 261° |
| 2026-04-23 14:45 | 39.56010 | -106.89791 | 14704 ft | 201 kts | 255° |
| 2026-04-23 14:45 | 39.55617 | -106.91492 | 14682 ft | 196 kts | 253° |
| 2026-04-23 14:46 | 39.55172 | -106.93247 | 14696 ft | 221 kts | 252° |
| 2026-04-23 14:46 | 39.54523 | -106.95207 | 14712 ft | 256 kts | 236° |
| 2026-04-23 14:46 | 39.53072 | -106.96793 | 14744 ft | 288 kts | 217° |
| 2026-04-23 14:46 | 39.51425 | -106.98144 | 14731 ft | 272 kts | 215° |
| 2026-04-23 14:47 | 39.49832 | -106.99355 | 14683 ft | 261 kts | 214° |
| 2026-04-23 14:47 | 39.48274 | -107.00479 | 14625 ft | 250 kts | 212° |
| 2026-04-23 14:47 | 39.46617 | -107.01024 | 14520 ft | 253 kts | 180° |
| 2026-04-23 14:47 | 39.44962 | -107.00260 | 14457 ft | 249 kts | 158° |
| 2026-04-23 14:48 | 39.43581 | -106.99146 | 14343 ft | 231 kts | 144° |
| 2026-04-23 14:48 | 39.42510 | -106.97625 | 13983 ft | 223 kts | 139° |
| 2026-04-23 14:48 | 39.41439 | -106.96236 | 13677 ft | 215 kts | 142° |
| 2026-04-23 14:48 | 39.40265 | -106.95099 | 13192 ft | 210 kts | 155° |
| 2026-04-23 14:49 | 39.39030 | -106.94172 | 12697 ft | 206 kts | 156° |
| 2026-04-23 14:49 | 39.37739 | -106.93284 | 12217 ft | 212 kts | 160° |
| 2026-04-23 14:49 | 39.36362 | -106.92527 | 11555 ft | 218 kts | 164° |
| 2026-04-23 14:49 | 39.34953 | -106.91927 | 11093 ft | 204 kts | 167° |
| 2026-04-23 14:50 | 39.33651 | -106.91474 | 10583 ft | 190 kts | 175° |
| 2026-04-23 14:50 | 39.32417 | -106.91132 | 10423 ft | 179 kts | 174° |
| 2026-04-23 14:50 | 39.31153 | -106.90798 | 9809 ft | 193 kts | 173° |
| 2026-04-23 14:50 | 39.29879 | -106.90416 | 9211 ft | 180 kts | 169° |
| 2026-04-23 14:51 | 39.28722 | -106.89945 | 9013 ft | 172 kts | 166° |
| 2026-04-23 14:51 | 39.27613 | -106.89409 | 8836 ft | 167 kts | 160° |
| 2026-04-23 14:51 | 39.26525 | -106.88865 | 8626 ft | 173 kts | 162° |
| 2026-04-23 14:51 | 39.25362 | -106.88324 | 8257 ft | 178 kts | 166° |
| 2026-04-23 14:52 | 39.24224 | -106.87799 | 7965 ft | 176 kts | 165° |
| 2026-04-23 14:52 | 39.23145 | -106.87280 | 7724 ft | 146 kts | 157° |
| 2026-04-23 14:52 | 39.22399 | -106.86914 | 7744 ft | 67 kts | 159° |
| 2026-04-23 14:52 | 39.22213 | -106.86843 | 7757 ft | 14 kts | 156° |
| 2026-04-23 14:53 | 39.22138 | -106.86802 | 7766 ft | 9 kts | 157° |
| 2026-04-23 14:53 | 39.22076 | -106.86771 | 7769 ft | 12 kts | 159° |
| 2026-04-23 14:53 | 39.22026 | -106.86699 | 7769 ft | 11 kts | 88° |
| 2026-04-23 14:53 | 39.22009 | -106.86622 | 7779 ft | 7 kts | 150° |
| 2026-04-23 14:54 | 39.21970 | -106.86600 | 7780 ft | 5 kts | 158° |
| 2026-04-23 14:54 | 39.21949 | -106.86588 | 7777 ft | 3 kts | 141° |
| 2026-04-23 14:54 | 39.21945 | -106.86535 | 7783 ft | 6 kts | 83° |
| 2026-04-23 14:54 | 39.21947 | -106.86514 | 7786 ft | 0 kts | 80° |